createdAt,value
2018-12-20T00:00:43.356Z,6.00
2018-12-20T00:03:11.035Z,6.10
2018-12-20T00:05:38.618Z,6.10
2018-12-20T00:08:06.082Z,6.10
2018-12-20T00:10:33.703Z,6.10
2018-12-20T00:13:01.412Z,6.10
2018-12-20T00:15:28.918Z,6.10
2018-12-20T00:17:56.469Z,6.10
2018-12-20T00:20:23.989Z,6.40
2018-12-20T00:22:51.465Z,6.20
2018-12-20T00:25:19.051Z,6.20
2018-12-20T00:27:46.525Z,6.10
2018-12-20T00:30:14.195Z,6.10
2018-12-20T00:32:41.823Z,6.10
2018-12-20T00:35:09.507Z,6.00
2018-12-20T00:37:36.972Z,6.00
2018-12-20T00:40:06.650Z,6.00
2018-12-20T00:42:34.958Z,6.00
2018-12-20T00:45:02.723Z,6.00
2018-12-20T00:47:30.664Z,6.10
2018-12-20T00:49:58.240Z,6.10
2018-12-20T00:52:25.815Z,6.10
2018-12-20T00:54:53.470Z,6.10
2018-12-20T00:57:21.291Z,6.20
2018-12-20T00:59:49.110Z,6.40
2018-12-20T01:02:16.763Z,6.60
2018-12-20T01:04:44.272Z,6.40
2018-12-20T01:07:12.091Z,6.30
2018-12-20T01:09:39.635Z,6.20
2018-12-20T01:12:07.429Z,6.20
2018-12-20T01:14:34.935Z,6.00
2018-12-20T01:17:03.208Z,6.00
2018-12-20T01:19:30.807Z,5.80
2018-12-20T01:21:58.692Z,5.80
2018-12-20T01:24:26.385Z,5.90
2018-12-20T01:26:53.991Z,5.90
2018-12-20T01:29:22.347Z,5.90
2018-12-20T01:31:49.907Z,6.00
2018-12-20T01:34:17.554Z,6.00
2018-12-20T01:36:45.069Z,6.10
2018-12-20T01:39:12.906Z,6.00
2018-12-20T01:41:40.813Z,6.00
2018-12-20T01:44:08.398Z,6.10
2018-12-20T01:46:36.091Z,6.00
2018-12-20T01:49:03.608Z,6.10
2018-12-20T01:51:31.072Z,6.00
2018-12-20T01:53:58.737Z,5.90
2018-12-20T01:56:26.375Z,5.90
2018-12-20T01:58:53.877Z,5.90
2018-12-20T02:01:21.388Z,6.00
2018-12-20T02:03:49.050Z,5.90
2018-12-20T02:06:16.558Z,5.90
2018-12-20T02:08:44.231Z,5.90
2018-12-20T02:11:11.790Z,6.00
2018-12-20T02:13:39.391Z,6.20
2018-12-20T02:16:07.068Z,6.20
2018-12-20T02:18:35.046Z,6.10
2018-12-20T02:21:04.429Z,6.00
2018-12-20T02:23:32.571Z,5.80
2018-12-20T02:26:00.392Z,5.80
2018-12-20T02:28:28.338Z,5.80
2018-12-20T02:30:55.999Z,5.90
2018-12-20T02:33:23.862Z,5.90
2018-12-20T02:35:51.532Z,5.90
2018-12-20T02:38:19.149Z,5.90
2018-12-20T02:40:46.657Z,5.80
2018-12-20T02:43:14.525Z,5.80
2018-12-20T02:45:42.191Z,5.80
2018-12-20T02:48:09.708Z,5.80
2018-12-20T02:50:37.331Z,5.80
2018-12-20T02:53:05.194Z,5.80
2018-12-20T02:55:32.815Z,5.80
2018-12-20T02:58:00.691Z,5.70
2018-12-20T03:00:28.682Z,5.80
2018-12-20T03:02:56.924Z,5.70
2018-12-20T03:05:24.646Z,5.70
2018-12-20T03:07:52.461Z,5.70
2018-12-20T03:10:20.135Z,5.70
2018-12-20T03:12:47.711Z,5.70
2018-12-20T03:15:20.083Z,5.80
2018-12-20T03:17:45.812Z,5.80
2018-12-20T03:20:13.925Z,5.80
2018-12-20T03:22:41.726Z,5.70
2018-12-20T03:25:09.464Z,5.60
2018-12-20T03:27:37.206Z,5.60
2018-12-20T03:30:05.758Z,5.60
2018-12-20T03:32:33.817Z,5.60
2018-12-20T03:35:01.659Z,5.60
2018-12-20T03:37:29.669Z,5.50
2018-12-20T03:39:57.463Z,5.50
2018-12-20T03:42:25.129Z,5.40
2018-12-20T03:44:52.771Z,5.40
2018-12-20T03:47:20.432Z,5.50
2018-12-20T03:49:48.365Z,5.50
2018-12-20T03:52:16.142Z,5.60
2018-12-20T03:54:43.974Z,5.50
2018-12-20T03:57:11.614Z,5.40
2018-12-20T03:59:39.302Z,5.50
2018-12-20T04:02:06.877Z,5.50
2018-12-20T04:04:34.484Z,5.50
2018-12-20T04:07:02.460Z,5.50
2018-12-20T04:09:30.393Z,5.50
2018-12-20T04:11:58.321Z,5.50
2018-12-20T04:14:26.092Z,5.60
2018-12-20T04:16:53.891Z,5.50
2018-12-20T04:19:21.869Z,5.50
2018-12-20T04:21:49.639Z,5.50
2018-12-20T04:24:17.494Z,5.50
2018-12-20T04:26:45.141Z,5.50
2018-12-20T04:29:12.880Z,5.40
2018-12-20T04:31:40.491Z,5.50
2018-12-20T04:34:08.240Z,5.40
2018-12-20T04:36:36.188Z,5.50
2018-12-20T04:39:07.467Z,5.50
2018-12-20T04:41:35.171Z,5.50
2018-12-20T04:44:02.722Z,5.40
2018-12-20T04:46:30.440Z,5.50
2018-12-20T04:48:58.224Z,5.50
2018-12-20T04:51:25.956Z,5.50
2018-12-20T04:53:53.774Z,5.50
2018-12-20T04:56:21.345Z,5.50
2018-12-20T04:58:49.544Z,5.50
2018-12-20T05:01:17.496Z,5.50
2018-12-20T05:03:45.351Z,5.50
2018-12-20T05:06:13.021Z,5.50
2018-12-20T05:08:40.448Z,5.40
2018-12-20T05:11:07.909Z,5.50
2018-12-20T05:13:35.364Z,5.50
2018-12-20T05:16:02.929Z,5.50
2018-12-20T05:18:30.655Z,5.50
2018-12-20T05:20:58.285Z,5.50
2018-12-20T05:23:25.835Z,5.50
2018-12-20T05:25:53.520Z,5.50
2018-12-20T05:28:21.101Z,5.60
2018-12-20T05:30:48.853Z,5.50
2018-12-20T05:33:16.507Z,5.60
2018-12-20T05:35:44.063Z,5.50
2018-12-20T05:38:11.873Z,5.50
2018-12-20T05:40:39.335Z,5.50
2018-12-20T05:43:07.037Z,5.60
2018-12-20T05:45:34.677Z,5.60
2018-12-20T05:48:02.231Z,5.60
2018-12-20T05:50:29.867Z,5.60
2018-12-20T05:52:57.473Z,5.60
2018-12-20T05:55:25.110Z,5.60
2018-12-20T05:57:52.985Z,5.60
2018-12-20T06:00:20.966Z,5.60
2018-12-20T06:02:48.861Z,5.60
2018-12-20T06:05:16.702Z,5.50
2018-12-20T06:07:44.661Z,5.50
2018-12-20T06:10:12.401Z,5.60
2018-12-20T06:12:40.097Z,5.60
2018-12-20T06:15:08.003Z,5.60
2018-12-20T06:17:35.711Z,5.60
2018-12-20T06:20:04.241Z,5.70
2018-12-20T06:22:31.760Z,5.70
2018-12-20T06:24:59.234Z,5.70
2018-12-20T06:27:26.674Z,5.70
2018-12-20T06:29:54.215Z,5.70
2018-12-20T06:32:21.691Z,5.70
2018-12-20T06:34:49.118Z,5.70
2018-12-20T06:37:16.558Z,5.70
2018-12-20T06:39:43.996Z,5.80
2018-12-20T06:42:11.500Z,5.80
2018-12-20T06:44:38.963Z,5.70
2018-12-20T06:47:06.418Z,5.70
2018-12-20T06:49:33.874Z,5.70
2018-12-20T06:52:01.332Z,5.80
2018-12-20T06:54:28.784Z,5.80
2018-12-20T06:56:56.236Z,5.90
2018-12-20T06:59:24.005Z,6.00
2018-12-20T07:01:51.974Z,6.00
2018-12-20T07:04:19.405Z,6.00
2018-12-20T07:06:47.839Z,6.00
2018-12-20T07:09:15.296Z,6.10
2018-12-20T07:11:42.875Z,5.90
2018-12-20T07:14:10.595Z,5.80
2018-12-20T07:16:38.258Z,5.90
2018-12-20T07:19:05.804Z,5.90
2018-12-20T07:21:33.736Z,5.80
2018-12-20T07:24:01.221Z,5.80
2018-12-20T07:26:28.888Z,5.80
2018-12-20T07:28:57.981Z,5.80
2018-12-20T07:31:25.557Z,5.70
2018-12-20T07:33:53.010Z,5.70
2018-12-20T07:36:20.773Z,5.70
2018-12-20T07:38:48.219Z,5.70
2018-12-20T07:41:15.683Z,5.70
2018-12-20T07:43:43.159Z,5.70
2018-12-20T07:46:10.623Z,5.60
2018-12-20T07:48:38.264Z,5.60
2018-12-20T07:51:05.809Z,5.60
2018-12-20T07:53:33.263Z,5.60
2018-12-20T07:56:00.714Z,5.60
2018-12-20T07:58:28.189Z,5.50
2018-12-20T08:00:55.628Z,5.60
2018-12-20T08:03:23.099Z,5.50
2018-12-20T08:05:50.559Z,5.50
2018-12-20T08:08:18.015Z,5.50
2018-12-20T08:10:46.391Z,5.50
2018-12-20T08:13:13.840Z,5.50
2018-12-20T08:15:41.305Z,5.60
2018-12-20T08:18:09.237Z,5.60
2018-12-20T08:20:36.731Z,5.60
2018-12-20T08:23:04.295Z,5.70
2018-12-20T08:25:31.743Z,5.70
2018-12-20T08:27:59.412Z,5.60
2018-12-20T08:30:26.865Z,5.60
2018-12-20T08:32:54.623Z,5.70
2018-12-20T08:35:22.285Z,5.80
2018-12-20T08:37:49.710Z,5.70
2018-12-20T08:40:17.525Z,5.80
2018-12-20T08:42:45.063Z,5.70
2018-12-20T08:45:12.651Z,5.70
2018-12-20T08:47:40.098Z,5.80
2018-12-20T08:50:07.666Z,5.80
2018-12-20T08:52:35.170Z,5.90
2018-12-20T08:55:02.767Z,5.90
2018-12-20T08:57:30.208Z,5.90
2018-12-20T08:59:57.670Z,6.00
2018-12-20T09:02:25.147Z,6.00
2018-12-20T09:04:52.600Z,6.00
2018-12-20T09:07:20.075Z,6.00
2018-12-20T09:09:47.787Z,6.10
2018-12-20T09:12:15.261Z,6.00
2018-12-20T09:14:42.718Z,6.10
2018-12-20T09:17:10.164Z,6.10
2018-12-20T09:19:37.632Z,6.10
2018-12-20T09:22:05.700Z,6.20
2018-12-20T09:24:33.465Z,6.20
2018-12-20T09:27:01.117Z,6.20
2018-12-20T09:29:28.563Z,6.20
2018-12-20T09:31:56.140Z,6.20
2018-12-20T09:34:23.591Z,6.20
2018-12-20T09:36:51.049Z,6.30
2018-12-20T09:39:18.516Z,6.30
2018-12-20T09:41:46.171Z,6.30
2018-12-20T09:44:13.623Z,6.40
2018-12-20T09:46:41.080Z,6.40
2018-12-20T09:49:08.549Z,6.50
2018-12-20T09:51:36.095Z,6.40
2018-12-20T09:54:03.549Z,6.40
2018-12-20T09:56:31.317Z,6.50
2018-12-20T09:58:58.768Z,6.50
2018-12-20T10:01:26.408Z,6.50
2018-12-20T10:03:53.938Z,6.50
2018-12-20T10:06:21.628Z,6.50
2018-12-20T10:08:49.187Z,6.50
2018-12-20T10:11:16.725Z,6.50
2018-12-20T10:13:44.412Z,6.50
2018-12-20T10:16:11.903Z,6.50
2018-12-20T10:18:39.528Z,6.50
2018-12-20T10:21:07.035Z,6.50
2018-12-20T10:23:34.560Z,6.60
2018-12-20T10:26:02.100Z,6.60
2018-12-20T10:28:29.699Z,6.60
2018-12-20T10:30:57.158Z,6.60
2018-12-20T10:33:24.611Z,6.60
2018-12-20T10:35:52.079Z,6.60
2018-12-20T10:38:19.552Z,6.60
2018-12-20T10:40:47.068Z,6.60
2018-12-20T10:43:14.844Z,6.60
2018-12-20T10:45:42.307Z,6.70
2018-12-20T10:48:10.071Z,6.60
2018-12-20T10:50:37.542Z,6.60
2018-12-20T10:53:05.142Z,6.70
2018-12-20T10:55:32.577Z,6.70
2018-12-20T10:58:00.191Z,6.70
2018-12-20T11:00:29.561Z,6.70
2018-12-20T11:06:08.479Z,6.90
2018-12-20T11:08:37.895Z,7.00
2018-12-20T11:11:06.248Z,7.00
2018-12-20T11:13:33.756Z,7.00
2018-12-20T11:16:01.302Z,7.00
2018-12-20T11:18:28.856Z,7.00
2018-12-20T11:20:56.520Z,6.90
2018-12-20T11:23:24.379Z,6.90
2018-12-20T11:25:51.889Z,7.10
2018-12-20T11:28:19.431Z,7.10
2018-12-20T11:30:46.948Z,7.10
2018-12-20T11:33:14.827Z,7.00
2018-12-20T11:35:42.729Z,7.00
2018-12-20T11:38:10.199Z,7.00
2018-12-20T11:40:37.744Z,7.00
2018-12-20T11:43:05.199Z,7.00
2018-12-20T11:45:32.859Z,7.00
2018-12-20T11:48:00.623Z,7.10
2018-12-20T11:50:28.387Z,7.10
2018-12-20T11:52:55.840Z,7.10
2018-12-20T11:55:23.275Z,7.10
2018-12-20T11:57:50.737Z,7.20
2018-12-20T12:00:18.195Z,7.20
2018-12-20T12:02:45.969Z,7.20
2018-12-20T12:05:13.615Z,7.20
2018-12-20T12:07:41.077Z,7.20
2018-12-20T12:10:08.642Z,7.20
2018-12-20T12:12:36.422Z,7.20
2018-12-20T12:15:04.786Z,7.20
2018-12-20T12:17:32.327Z,7.20
2018-12-20T12:19:59.798Z,7.20
2018-12-20T12:22:27.400Z,7.20
2018-12-20T12:24:54.857Z,7.30
2018-12-20T12:27:22.317Z,7.30
2018-12-20T12:29:49.759Z,7.30
2018-12-20T12:32:17.210Z,7.30
2018-12-20T12:34:44.678Z,7.20
2018-12-20T12:37:12.139Z,7.20
2018-12-20T12:39:39.659Z,7.20
2018-12-20T12:42:07.116Z,7.20
2018-12-20T12:44:34.564Z,7.10
2018-12-20T12:47:03.957Z,7.20
2018-12-20T12:49:31.654Z,7.20
2018-12-20T12:51:59.179Z,7.20
2018-12-20T12:54:26.640Z,7.20
2018-12-20T12:56:54.091Z,7.20
2018-12-20T12:59:21.546Z,7.10
2018-12-20T13:01:48.996Z,7.10
2018-12-20T13:04:16.683Z,7.10
2018-12-20T13:06:44.147Z,7.20
2018-12-20T13:09:12.207Z,7.20
2018-12-20T13:11:39.660Z,7.20
2018-12-20T13:14:07.111Z,7.20
2018-12-20T13:16:34.587Z,7.30
2018-12-20T13:19:03.104Z,7.30
2018-12-20T13:21:30.552Z,7.30
2018-12-20T13:23:58.183Z,7.30
2018-12-20T13:26:25.912Z,7.40
2018-12-20T13:28:53.410Z,7.40
2018-12-20T13:31:21.330Z,7.40
2018-12-20T13:33:48.928Z,7.30
2018-12-20T13:36:16.787Z,7.30
2018-12-20T13:38:44.292Z,7.40
2018-12-20T13:41:12.083Z,7.40
2018-12-20T13:43:39.668Z,7.40
2018-12-20T13:46:07.305Z,7.40
2018-12-20T13:48:34.897Z,7.40
2018-12-20T13:51:02.345Z,7.40
2018-12-20T13:53:29.799Z,7.40
2018-12-20T13:55:57.563Z,7.50
2018-12-20T13:58:25.054Z,7.50
2018-12-20T14:00:52.891Z,7.40
2018-12-20T14:03:20.429Z,7.40
2018-12-20T14:05:48.007Z,7.40
2018-12-20T14:08:15.472Z,7.40
2018-12-20T14:10:42.914Z,7.40
2018-12-20T14:13:10.541Z,7.40
2018-12-20T14:15:38.018Z,7.40
2018-12-20T14:18:05.895Z,7.40
2018-12-20T14:20:33.355Z,7.40
2018-12-20T14:23:00.828Z,7.40
2018-12-20T14:25:28.592Z,7.40
2018-12-20T14:27:56.049Z,7.40
2018-12-20T14:30:23.806Z,7.40
2018-12-20T14:32:51.266Z,7.40
2018-12-20T14:35:18.704Z,7.40
2018-12-20T14:37:46.168Z,7.30
2018-12-20T14:40:13.623Z,7.40
2018-12-20T14:42:41.392Z,7.40
2018-12-20T14:45:09.155Z,7.40
2018-12-20T14:47:36.582Z,7.50
2018-12-20T14:50:05.911Z,7.40
2018-12-20T14:52:33.375Z,7.50
2018-12-20T14:55:00.856Z,7.50
2018-12-20T14:57:28.614Z,7.50
2018-12-20T14:59:56.351Z,7.60
2018-12-20T15:02:24.116Z,7.50
2018-12-20T15:04:51.883Z,7.60
2018-12-20T15:07:19.657Z,7.60
2018-12-20T15:09:47.423Z,7.60
2018-12-20T15:12:15.039Z,7.60
2018-12-20T15:14:42.619Z,7.50
2018-12-20T15:17:10.398Z,7.50
2018-12-20T15:19:37.915Z,7.60
2018-12-20T15:22:05.606Z,7.50
2018-12-20T15:24:33.071Z,7.60
2018-12-20T15:27:00.543Z,7.50
2018-12-20T15:29:28.074Z,7.60
2018-12-20T15:31:55.535Z,7.50
2018-12-20T15:34:23.063Z,7.50
2018-12-20T15:36:50.657Z,7.50
2018-12-20T15:39:18.123Z,7.40
2018-12-20T15:41:45.564Z,7.40
2018-12-20T15:44:13.016Z,7.50
2018-12-20T15:46:40.592Z,7.50
2018-12-20T15:49:08.223Z,7.50
2018-12-20T15:51:35.685Z,7.40
2018-12-20T15:54:03.137Z,7.40
2018-12-20T15:56:30.613Z,7.40
2018-12-20T15:58:58.076Z,7.40
2018-12-20T16:01:25.532Z,7.40
2018-12-20T16:03:52.991Z,7.50
2018-12-20T16:06:20.443Z,7.50
2018-12-20T16:08:48.375Z,7.50
2018-12-20T16:11:16.212Z,7.50
2018-12-20T16:13:43.657Z,7.50
2018-12-20T16:16:11.188Z,7.50
2018-12-20T16:18:38.666Z,7.60
2018-12-20T16:21:06.399Z,7.60
2018-12-20T16:23:34.177Z,7.60
2018-12-20T16:26:01.637Z,7.50
2018-12-20T16:28:29.087Z,7.50
2018-12-20T16:30:56.559Z,7.50
2018-12-20T16:33:24.319Z,7.50
2018-12-20T16:35:51.870Z,7.50
2018-12-20T16:38:19.324Z,7.40
2018-12-20T16:40:46.788Z,7.40
2018-12-20T16:43:14.363Z,7.40
2018-12-20T16:45:41.897Z,7.30
2018-12-20T16:48:09.661Z,7.30
2018-12-20T16:50:37.290Z,7.30
2018-12-20T16:53:04.763Z,7.30
2018-12-20T16:55:32.340Z,7.40
2018-12-20T16:57:59.795Z,7.40
2018-12-20T17:00:28.836Z,7.40
2018-12-20T17:02:56.292Z,7.40
2018-12-20T17:05:23.863Z,7.50
2018-12-20T17:07:51.375Z,7.50
2018-12-20T17:10:19.136Z,7.60
2018-12-20T17:12:46.576Z,7.60
2018-12-20T17:15:15.947Z,7.60
2018-12-20T17:17:43.432Z,7.80
2018-12-20T17:20:10.926Z,7.70
2018-12-20T17:22:38.451Z,7.60
2018-12-20T17:25:05.932Z,7.50
2018-12-20T17:27:33.394Z,7.50
2018-12-20T17:30:01.019Z,7.40
2018-12-20T17:32:28.472Z,7.50
2018-12-20T17:34:56.105Z,7.50
2018-12-20T17:37:23.530Z,7.50
2018-12-20T17:39:51.165Z,7.40
2018-12-20T17:42:18.624Z,7.30
2018-12-20T17:44:46.367Z,7.30
2018-12-20T17:47:13.837Z,7.30
2018-12-20T17:49:41.371Z,7.30
2018-12-20T17:52:08.828Z,7.30
2018-12-20T17:54:36.279Z,7.20
2018-12-20T17:57:03.727Z,7.20
2018-12-20T17:59:31.420Z,7.20
2018-12-20T18:01:58.868Z,7.20
2018-12-20T18:04:26.335Z,7.20
2018-12-20T18:06:53.791Z,7.20
2018-12-20T18:09:21.247Z,7.10
2018-12-20T18:11:48.696Z,7.20
2018-12-20T18:14:16.354Z,7.20
2018-12-20T18:16:44.097Z,7.10
2018-12-20T18:19:12.477Z,7.20
2018-12-20T18:21:40.254Z,7.20
2018-12-20T18:24:07.698Z,7.30
2018-12-20T18:26:35.286Z,7.40
2018-12-20T18:29:02.735Z,7.30
2018-12-20T18:31:30.196Z,7.40
2018-12-20T18:33:57.639Z,7.40
2018-12-20T18:36:25.106Z,7.40
2018-12-20T18:38:52.882Z,7.40
2018-12-20T18:41:20.324Z,7.30
2018-12-20T18:43:47.791Z,7.40
2018-12-20T18:46:15.243Z,7.50
2018-12-20T18:48:42.875Z,7.50
2018-12-20T18:51:10.354Z,7.40
2018-12-20T18:53:37.788Z,7.50
2018-12-20T18:56:05.479Z,7.50
2018-12-20T18:58:32.911Z,7.40
2018-12-20T19:01:00.600Z,7.40
2018-12-20T19:03:28.235Z,7.50
2018-12-20T19:05:55.715Z,7.40
2018-12-20T19:08:23.444Z,7.40
2018-12-20T19:10:50.940Z,7.40
2018-12-20T19:13:18.384Z,7.50
2018-12-20T19:15:45.871Z,7.50
2018-12-20T19:18:14.019Z,7.50
2018-12-20T19:20:41.514Z,7.50
2018-12-20T19:23:08.964Z,7.50
2018-12-20T19:25:36.703Z,7.50
2018-12-20T19:28:04.470Z,7.50
2018-12-20T19:30:32.042Z,7.40
2018-12-20T19:32:59.684Z,7.40
2018-12-20T19:35:27.184Z,7.30
2018-12-20T19:37:55.840Z,7.30
2018-12-20T19:40:23.303Z,7.40
2018-12-20T19:42:50.912Z,7.40
2018-12-20T19:45:19.138Z,7.40
2018-12-20T19:47:46.893Z,7.40
2018-12-20T19:50:14.348Z,7.40
2018-12-20T19:52:41.887Z,7.40
2018-12-20T19:55:09.569Z,7.40
2018-12-20T19:57:37.352Z,7.30
2018-12-20T20:00:10.044Z,7.40
2018-12-20T20:02:37.690Z,7.30
2018-12-20T20:05:05.306Z,7.20
2018-12-20T20:07:32.981Z,7.20
2018-12-20T20:10:00.613Z,7.30
2018-12-20T20:12:28.224Z,7.30
2018-12-20T20:14:55.665Z,7.30
2018-12-20T20:17:23.108Z,7.30
2018-12-20T20:19:50.594Z,7.30
2018-12-20T20:22:18.068Z,7.20
2018-12-20T20:24:45.528Z,7.20
2018-12-20T20:27:13.322Z,7.30
2018-12-20T20:29:40.783Z,7.30
2018-12-20T20:32:08.275Z,7.30
2018-12-20T20:34:36.311Z,7.30
2018-12-20T20:37:03.843Z,7.30
2018-12-20T20:39:31.352Z,7.30
2018-12-20T20:41:58.907Z,7.30
2018-12-20T20:44:26.672Z,7.30
2018-12-20T20:46:54.147Z,7.40
2018-12-20T20:49:21.765Z,7.40
2018-12-20T20:51:49.316Z,7.40
2018-12-20T20:54:16.803Z,7.40
2018-12-20T20:56:44.272Z,7.40
2018-12-20T20:59:12.031Z,7.40
2018-12-20T21:01:39.774Z,7.40
2018-12-20T21:04:07.245Z,7.40
2018-12-20T21:06:34.702Z,7.40
2018-12-20T21:09:02.248Z,7.40
2018-12-20T21:11:29.794Z,7.40
2018-12-20T21:13:57.372Z,7.40
2018-12-20T21:16:24.820Z,7.40
2018-12-20T21:18:52.318Z,7.40
2018-12-20T21:21:20.191Z,7.40
2018-12-20T21:23:47.751Z,7.50
2018-12-20T21:26:15.276Z,7.50
2018-12-20T21:28:43.074Z,7.50
2018-12-20T21:31:10.733Z,7.40
2018-12-20T21:33:38.264Z,7.50
2018-12-20T21:36:05.712Z,7.50
2018-12-20T21:38:33.343Z,7.50
2018-12-20T21:41:00.932Z,7.50
2018-12-20T21:43:28.384Z,7.70
2018-12-20T21:45:55.828Z,7.70
2018-12-20T21:48:23.289Z,7.80
2018-12-20T21:50:50.757Z,7.60
2018-12-20T21:53:18.201Z,7.60
2018-12-20T21:55:45.675Z,7.50
2018-12-20T21:58:14.045Z,7.80
2018-12-20T22:00:41.503Z,7.80
2018-12-20T22:03:09.272Z,7.80
2018-12-20T22:05:36.708Z,7.70
2018-12-20T22:08:04.213Z,7.80
2018-12-20T22:10:31.653Z,7.70
2018-12-20T22:12:59.399Z,7.80
2018-12-20T22:15:26.872Z,7.90
2018-12-20T22:17:54.483Z,8.00
2018-12-20T22:20:22.085Z,8.00
2018-12-20T22:22:49.535Z,8.10
2018-12-20T22:25:19.800Z,8.00
2018-12-20T22:27:47.235Z,7.90
2018-12-20T22:30:14.992Z,7.90
2018-12-20T22:32:42.428Z,7.80
2018-12-20T22:35:09.892Z,7.80
2018-12-20T22:37:37.521Z,7.70
2018-12-20T22:40:06.678Z,7.70
2018-12-20T22:42:34.421Z,7.70
2018-12-20T22:45:02.202Z,7.90
2018-12-20T22:47:29.827Z,8.10
2018-12-20T22:49:57.407Z,8.20
2018-12-20T22:52:24.879Z,8.00
2018-12-20T22:54:52.329Z,7.90
2018-12-20T22:57:19.778Z,7.80
2018-12-20T22:59:47.536Z,7.80
2018-12-20T23:02:18.204Z,7.70
2018-12-20T23:04:44.615Z,7.70
2018-12-20T23:07:12.219Z,7.60
2018-12-20T23:09:39.673Z,7.60
2018-12-20T23:12:07.161Z,7.60
2018-12-20T23:14:34.721Z,7.60
2018-12-20T23:17:02.492Z,7.60
2018-12-20T23:19:30.261Z,7.60
2018-12-20T23:21:57.700Z,7.70
2018-12-20T23:24:25.168Z,7.70
2018-12-20T23:26:52.626Z,7.70
2018-12-20T23:29:20.371Z,7.70
2018-12-20T23:31:47.816Z,7.70
2018-12-20T23:34:15.280Z,7.70
2018-12-20T23:36:43.579Z,7.70
2018-12-20T23:39:11.139Z,7.70
2018-12-20T23:41:38.899Z,7.70
2018-12-20T23:44:06.523Z,7.60
2018-12-20T23:46:34.118Z,7.60
2018-12-20T23:49:01.744Z,7.70
2018-12-20T23:51:29.335Z,7.70
2018-12-20T23:53:56.781Z,7.60
2018-12-20T23:56:24.239Z,7.60
2018-12-20T23:58:51.703Z,7.60
